Etusivu
METAR-TAF:

METAR-TAF

Lentoasemat :

Liepāja, Latvia

Leveyspiiri: 56-31N, Pituuspiiri: 021-05E, korkeus merenpinnasta: 5 m

Tämänhetkinen sää

Tämä raportti tehtiin 22 minuuttia sitten, kello 23.50 UTC
Tuuli 6 kn idästä
Lämpötila -1°C
Kosteus 93%
Ilmanpaine 1031 hPa
Näkyvyys 10 km tai enemmän

METAR: EVLA 202350Z AUTO 08006KT 9999 FEW012/// SCT017/// M01/M02 Q1031

Aika: 02:12 (00:12 UTC)

Sääennuste

Tämä raportti tehtiin 1 tunti ja 8 minuuttia sitten, kello 23.04 UTC
Ennuste voimassa 21. päivästä klo 00 UTC - 21. päivään klo 24 UTC
Tuuli 7 kn idästä
Näkyvyys 10 km tai enemmän
Pilvistä 1000 ft:n korkeudessa
Ajoittain
21. päivästä klo 00 UTC - 21. päivään klo 06 UTC
Näkyvyys: 3000 m
Pilvistä 200 ft:n korkeudessa
utua
Tulossa
21. päivästä klo 12 UTC - 21. päivään klo 14 UTC
Hajonneita pilviä 2000 ft:n korkeudessa

TAF: EVLA 202304Z 2100/2124 09007KT 9999 OVC010 TEMPO 2100/2106 3000 BR OVC002 BECMG 2112/2114 BKN020

Säähavainnot ja -ennusteet yli 4000 lentoasemalta (METAR- ja TAF-raportit).

Käytössä olevat sääasemat on merkitty karttaan keltaisilla ja punaisilla pisteillä.

Aseta hiiri pisteen päälle nähdäksesi sääaseman nimen.

Klikkaa sitten nähdäksesi säähavainnot ja -ennusteet.

Kartan vaihtaminen: klikkaa mustalla rastilla varustettuja vihreitä pisteitä, niin voit zoomata sisään; viivalla varustettua vihreää pistettä, niin voit zoomata ulos tai vihreitä nuolia, niin pääset viereisille kartoille.


METAR-TAF: